createdAt,value
2023-03-16T07:02:07.794Z,4.83
2023-03-16T07:05:13.724Z,4.98
2023-03-16T07:08:16.444Z,5.03
2023-03-16T07:11:19.948Z,5.33
2023-03-16T07:14:23.357Z,5.52
2023-03-16T07:17:27.844Z,5.65
2023-03-16T07:20:33.037Z,5.26
2023-03-16T07:23:36.413Z,5.10
2023-03-16T07:26:39.187Z,5.09
2023-03-16T07:29:42.862Z,5.17
2023-03-16T07:32:46.656Z,4.95
2023-03-16T07:35:52.027Z,5.00
2023-03-16T07:38:54.279Z,5.02
2023-03-16T07:41:57.121Z,5.26
2023-03-16T07:45:05.125Z,5.30
2023-03-16T07:48:09.234Z,5.40
2023-03-16T07:51:12.149Z,5.46
2023-03-16T07:54:14.920Z,5.55
2023-03-16T07:57:17.439Z,5.67
2023-03-16T08:00:23.860Z,5.57
2023-03-16T08:03:28.307Z,5.71
2023-03-16T08:06:31.126Z,5.67
2023-03-16T08:09:35.866Z,5.66
2023-03-16T08:12:39.524Z,5.84
2023-03-16T08:15:42.459Z,5.84
2023-03-16T08:18:47.320Z,5.79
2023-03-16T08:22:01.261Z,5.81
2023-03-16T08:25:06.048Z,5.87
2023-03-16T08:28:09.472Z,6.07
2023-03-16T08:31:14.212Z,6.15
2023-03-16T08:34:18.492Z,6.25
2023-03-16T08:37:22.075Z,6.53
2023-03-16T08:40:29.717Z,6.40
2023-03-16T08:43:33.720Z,6.55
2023-03-16T08:46:37.093Z,6.63
2023-03-16T08:49:41.388Z,6.86
2023-03-16T08:52:44.705Z,6.91
2023-03-16T08:55:47.048Z,6.75
2023-03-16T08:58:51.518Z,6.80
2023-03-16T09:01:54.430Z,6.96
2023-03-16T09:04:58.932Z,6.73
2023-03-16T09:08:01.648Z,6.96
2023-03-16T09:11:05.654Z,7.01
2023-03-16T09:14:08.730Z,7.01
2023-03-16T09:17:12.231Z,6.89
2023-03-16T09:20:34.555Z,6.90
2023-03-16T09:23:41.757Z,6.92
2023-03-16T09:26:44.232Z,7.05
2023-03-16T09:29:47.127Z,7.14
2023-03-16T09:32:50.524Z,7.17
2023-03-16T09:35:57.416Z,7.21
2023-03-16T09:39:00.092Z,7.16
2023-03-16T09:42:04.525Z,7.38
2023-03-16T09:45:09.370Z,7.30
2023-03-16T09:48:12.155Z,7.19
2023-03-16T09:51:19.128Z,7.16
2023-03-16T09:54:24.925Z,7.46
2023-03-16T09:57:28.459Z,7.52
2023-03-16T10:00:32.721Z,7.56
2023-03-16T10:03:51.364Z,7.32
2023-03-16T10:07:01.000Z,7.71
2023-03-16T10:10:06.263Z,7.76
2023-03-16T10:13:14.349Z,7.72
2023-03-16T10:16:19.385Z,7.84
2023-03-16T10:19:23.356Z,7.97
2023-03-16T10:22:29.921Z,8.04
2023-03-16T10:25:35.602Z,8.28
2023-03-16T10:28:38.584Z,8.26
2023-03-16T10:31:41.627Z,8.03
2023-03-16T10:34:45.646Z,8.10
2023-03-16T10:37:49.576Z,8.29
2023-03-16T10:40:52.520Z,8.19
2023-03-16T10:43:55.753Z,8.12
2023-03-16T10:47:01.973Z,8.08
2023-03-16T10:50:16.824Z,8.18
2023-03-16T10:53:23.644Z,8.25
2023-03-16T10:56:26.052Z,8.45
2023-03-16T10:59:31.928Z,8.52
2023-03-16T11:02:35.192Z,8.69
2023-03-16T11:05:38.278Z,8.54
2023-03-16T11:08:42.027Z,8.64
2023-03-16T11:11:48.486Z,8.55
2023-03-16T11:14:50.919Z,8.55
2023-03-16T11:17:53.693Z,8.48
2023-03-16T11:20:57.092Z,8.43
2023-03-16T11:24:01.146Z,8.45
2023-03-16T11:27:04.676Z,8.40
2023-03-16T11:30:12.088Z,8.78
2023-03-16T11:33:15.365Z,8.56
2023-03-16T11:36:27.980Z,8.78
2023-03-16T11:39:40.348Z,8.84
2023-03-16T11:42:46.197Z,8.74
2023-03-16T11:45:51.661Z,8.92
2023-03-16T11:49:01.390Z,8.83
2023-03-16T11:52:05.490Z,9.12
2023-03-16T11:55:19.718Z,8.92
2023-03-16T11:58:31.589Z,9.46
2023-03-16T12:01:47.771Z,9.58
2023-03-16T12:05:06.306Z,9.40
2023-03-16T12:08:16.871Z,8.97
2023-03-16T12:11:23.254Z,8.99
2023-03-16T12:14:27.294Z,9.11
2023-03-16T12:17:30.574Z,9.40
2023-03-16T12:20:35.659Z,9.11
2023-03-16T12:23:40.448Z,9.09
2023-03-16T12:26:44.802Z,9.21
2023-03-16T12:29:56.946Z,9.54
2023-03-16T12:33:02.092Z,9.55
2023-03-16T12:36:14.596Z,9.63
2023-03-16T12:39:20.183Z,9.55
2023-03-16T12:42:34.534Z,9.40
2023-03-16T12:45:38.969Z,9.57
2023-03-16T12:48:43.275Z,9.49
2023-03-16T12:51:45.569Z,9.60
2023-03-16T12:54:51.925Z,9.91
2023-03-16T12:58:01.337Z,9.80
2023-03-16T13:01:06.189Z,9.71
2023-03-16T13:04:12.564Z,9.56
2023-03-16T13:07:19.322Z,9.30
2023-03-16T13:10:22.303Z,9.50
2023-03-16T13:13:27.218Z,9.83
2023-03-16T13:16:30.604Z,10.08
2023-03-16T13:19:37.767Z,10.09
2023-03-16T13:22:44.564Z,10.20
2023-03-16T13:26:15.691Z,10.12
2023-03-16T13:29:23.999Z,10.39
2023-03-16T13:32:28.714Z,9.88
2023-03-16T13:35:31.753Z,9.85
2023-03-16T13:38:34.492Z,9.98
2023-03-16T13:41:36.988Z,9.31
2023-03-16T13:44:41.399Z,9.45
2023-03-16T13:47:44.568Z,9.41
2023-03-16T13:50:51.941Z,9.43
2023-03-16T13:53:54.473Z,9.60
2023-03-16T13:56:58.067Z,9.57
2023-03-16T14:00:07.205Z,9.41
2023-03-16T14:03:16.136Z,9.33
2023-03-16T14:06:22.360Z,9.39
2023-03-16T14:09:27.281Z,9.31
2023-03-16T14:12:29.718Z,9.36
2023-03-16T14:15:34.280Z,9.37
2023-03-16T14:18:37.608Z,9.31
2023-03-16T14:21:43.630Z,9.37
2023-03-16T14:24:47.925Z,9.62
2023-03-16T14:27:57.432Z,9.57
2023-03-16T14:31:05.409Z,9.33
2023-03-16T14:34:21.306Z,9.45
2023-03-16T14:37:23.733Z,9.31
2023-03-16T14:40:28.525Z,9.35
2023-03-16T14:43:32.909Z,9.42
2023-03-16T14:46:40.557Z,9.36
2023-03-16T14:49:43.525Z,9.51
2023-03-16T14:52:46.343Z,9.57
2023-03-16T14:55:48.789Z,9.41
2023-03-16T14:58:51.646Z,9.35
2023-03-16T15:01:55.570Z,9.43
2023-03-16T15:04:58.462Z,9.33
2023-03-16T15:08:00.961Z,9.28
2023-03-16T15:11:05.837Z,9.35
2023-03-16T15:14:34.972Z,9.09
2023-03-16T15:17:39.055Z,8.96
2023-03-16T15:20:43.228Z,9.05
2023-03-16T15:23:46.137Z,8.98
2023-03-16T15:26:48.718Z,8.99
2023-03-16T15:29:51.498Z,9.23
2023-03-16T15:32:55.405Z,9.26
2023-03-16T15:35:58.955Z,9.37
2023-03-16T15:39:02.271Z,9.36
2023-03-16T15:42:11.793Z,9.21
2023-03-16T15:45:17.393Z,8.99
2023-03-16T15:48:24.430Z,8.92
2023-03-16T15:51:27.887Z,8.94
2023-03-16T15:54:31.039Z,8.83
2023-03-16T15:57:33.491Z,8.84
2023-03-16T16:00:37.460Z,8.89
2023-03-16T16:03:41.329Z,8.63
